Time;durP1;ratioP1;P1;durP2;ratioP2;P2;SDS_P1;SDS_P2;PMS_P1;PMS_P2;Temp;Humidity;BMP_temperature;BMP_pressure;BME280_temperature;BME280_humidity;BME280_pressure;Samples;Min_cycle;Max_cycle;Signal;HPM_P1;HPM_P2
2024/01/17 00:01:58;;;;;;;0.20;0.20;;;-0.70;1.00;;;;;;5088940;28;20054;-86
2024/01/17 00:04:24;;;;;;;0.10;0.10;;;0.10;1.00;;;;;;5067992;28;20047;-86
2024/01/17 00:06:50;;;;;;;0.00;0.00;;;0.00;1.00;;;;;;5089608;28;20056;-86
2024/01/17 00:09:17;;;;;;;0.67;0.67;;;0.10;1.00;;;;;;5096556;28;20047;-86
2024/01/17 00:11:42;;;;;;;0.47;0.47;;;0.10;1.00;;;;;;5092250;28;20052;-86
2024/01/17 00:14:08;;;;;;;0.35;0.35;;;0.00;1.00;;;;;;5062729;28;20451;-86
2024/01/17 00:16:35;;;;;;;0.00;0.00;;;0.00;1.00;;;;;;5059345;28;20499;-86
2024/01/17 00:19:00;;;;;;;0.00;0.00;;;0.00;1.00;;;;;;5057709;28;20142;-85
2024/01/17 00:21:27;;;;;;;0.83;0.83;;;0.00;99.90;;;;;;5064997;28;20131;-86
2024/01/17 00:23:53;;;;;;;0.00;0.00;;;0.00;99.90;;;;;;5091360;28;20441;-85
2024/01/17 00:26:18;;;;;;;0.00;0.00;;;-0.10;99.90;;;;;;5088996;28;20048;-86
2024/01/17 00:28:44;;;;;;;0.00;0.00;;;-0.10;99.90;;;;;;5091852;28;20057;-86
2024/01/17 00:31:10;;;;;;;0.00;0.00;;;-0.10;99.90;;;;;;5089699;28;20516;-85
2024/01/17 00:33:36;;;;;;;0.00;0.00;;;-0.20;99.90;;;;;;5090336;28;20135;-86
2024/01/17 00:36:02;;;;;;;1.17;0.77;;;-0.30;99.90;;;;;;5093976;28;20473;-85
2024/01/17 00:38:28;;;;;;;0.00;0.00;;;-0.20;99.90;;;;;;5070874;28;20536;-85
2024/01/17 00:40:53;;;;;;;2.00;0.80;;;-0.20;99.90;;;;;;5064740;28;20064;-85
2024/01/17 00:43:20;;;;;;;0.00;0.00;;;-0.20;99.90;;;;;;5088362;28;20040;-85
2024/01/17 00:45:46;;;;;;;0.00;0.00;;;-0.20;99.90;;;;;;5085988;28;20044;-85
2024/01/17 00:48:13;;;;;;;0.00;0.00;;;-0.20;99.90;;;;;;5091860;28;20125;-85
2024/01/17 00:50:40;;;;;;;0.23;0.23;;;-0.20;99.90;;;;;;5092954;28;20059;-85
2024/01/17 00:53:06;;;;;;;0.67;0.67;;;-0.20;99.90;;;;;;5065899;28;20047;-85
2024/01/17 00:55:32;;;;;;;0.20;0.20;;;-0.20;99.90;;;;;;5061054;28;20044;-85
2024/01/17 00:57:58;;;;;;;5.73;1.53;;;-0.20;99.90;;;;;;5089151;28;20048;-85
2024/01/17 01:00:23;;;;;;;0.00;0.00;;;-0.20;99.90;;;;;;5077700;28;20040;-85
2024/01/17 01:02:51;;;;;;;0.00;0.00;;;-0.20;99.90;;;;;;5092977;28;20092;-85
2024/01/17 01:05:17;;;;;;;0.00;0.00;;;-0.20;99.90;;;;;;5071175;28;20100;-85
2024/01/17 01:07:44;;;;;;;0.87;0.87;;;-0.20;99.90;;;;;;5064021;28;20522;-85
2024/01/17 01:10:09;;;;;;;0.00;0.00;;;-0.20;99.90;;;;;;5063372;28;20048;-85
2024/01/17 01:12:35;;;;;;;0.00;0.00;;;-0.10;99.90;;;;;;5048585;28;20050;-85
2024/01/17 01:15:01;;;;;;;0.40;0.40;;;-0.10;99.90;;;;;;5068578;28;20520;-85
2024/01/17 01:17:26;;;;;;;0.10;0.10;;;-0.10;99.90;;;;;;5062322;28;20500;-85
2024/01/17 01:19:54;;;;;;;0.10;0.10;;;0.00;99.90;;;;;;5092440;28;20051;-85
2024/01/17 01:22:19;;;;;;;0.20;0.20;;;0.00;99.90;;;;;;5067235;28;20115;-85
2024/01/17 01:24:45;;;;;;;1.00;0.90;;;-0.10;99.90;;;;;;5044334;28;20131;-85
2024/01/17 01:27:10;;;;;;;0.00;0.00;;;-0.10;99.90;;;;;;5079276;28;20039;-85
2024/01/17 01:29:36;;;;;;;0.00;0.00;;;0.00;99.90;;;;;;5063419;28;20217;-85
2024/01/17 01:32:02;;;;;;;1.20;0.55;;;-0.10;99.90;;;;;;5092362;28;20044;-85
2024/01/17 01:34:27;;;;;;;0.30;0.30;;;-0.10;99.90;;;;;;5062002;28;20040;-85
2024/01/17 01:36:53;;;;;;;1.17;1.17;;;-0.10;99.90;;;;;;5088753;28;20131;-85
2024/01/17 01:39:18;;;;;;;0.00;0.00;;;-0.10;99.90;;;;;;5094054;28;20523;-85
2024/01/17 01:41:44;;;;;;;0.47;0.47;;;-0.10;99.90;;;;;;5094576;28;20059;-85
2024/01/17 01:44:10;;;;;;;0.47;0.47;;;0.00;99.90;;;;;;5090502;28;20132;-85
2024/01/17 01:46:35;;;;;;;0.00;0.00;;;0.00;99.90;;;;;;5063158;28;20063;-85
2024/01/17 01:49:01;;;;;;;0.73;0.73;;;-0.10;99.90;;;;;;5090629;28;20055;-85
2024/01/17 01:51:28;;;;;;;0.10;0.10;;;-0.10;99.90;;;;;;5090310;28;20050;-84
2024/01/17 01:53:57;;;;;;;1.90;0.70;;;-0.20;99.90;;;;;;5068688;28;20493;-85
2024/01/17 01:56:28;;;;;;;0.10;0.10;;;-0.10;99.90;;;;;;5093068;28;20040;-85
2024/01/17 01:58:56;;;;;;;0.03;0.03;;;-0.10;99.90;;;;;;5066291;28;20080;-86
2024/01/17 02:01:24;;;;;;;0.00;0.00;;;-0.20;99.90;;;;;;5049081;28;20386;-85
2024/01/17 02:03:50;;;;;;;0.20;0.20;;;-0.20;99.90;;;;;;5095758;28;20165;-84
2024/01/17 02:06:18;;;;;;;0.40;0.40;;;-0.10;99.90;;;;;;5090410;28;20095;-85
2024/01/17 02:08:44;;;;;;;0.30;0.30;;;0.00;99.90;;;;;;5081602;28;20414;-85
2024/01/17 02:11:10;;;;;;;1.03;0.93;;;0.10;99.90;;;;;;5062041;28;20056;-84
2024/01/17 02:13:35;;;;;;;0.00;0.00;;;0.00;99.90;;;;;;5063721;28;20091;-85
2024/01/17 02:16:02;;;;;;;0.10;0.10;;;0.10;99.90;;;;;;5090719;28;20991;-85
2024/01/17 02:18:28;;;;;;;1.40;1.30;;;0.10;99.90;;;;;;5063544;28;20125;-85
2024/01/17 02:20:54;;;;;;;2.33;1.70;;;0.10;99.90;;;;;;5083311;28;20052;-85
2024/01/17 02:23:27;;;;;;;0.08;0.08;;;0.10;99.90;;;;;;5092198;28;20515;-85
2024/01/17 02:25:57;;;;;;;0.57;0.47;;;0.10;99.90;;;;;;5073345;28;20048;-84
2024/01/17 02:28:25;;;;;;;0.60;0.60;;;0.10;99.90;;;;;;5080399;28;20059;-84
2024/01/17 02:30:51;;;;;;;0.03;0.03;;;0.10;99.90;;;;;;5103527;28;20044;-85
2024/01/17 02:33:18;;;;;;;0.30;0.30;;;0.10;99.90;;;;;;5108527;28;20052;-84
2024/01/17 02:35:45;;;;;;;0.38;0.38;;;0.10;99.90;;;;;;5082037;28;20040;-84
2024/01/17 02:38:10;;;;;;;0.17;0.17;;;0.00;99.90;;;;;;5103360;28;20040;-84
2024/01/17 02:40:36;;;;;;;0.83;0.83;;;0.10;99.90;;;;;;5089197;28;20655;-84
2024/01/17 02:43:02;;;;;;;0.10;0.10;;;0.00;99.90;;;;;;5054400;28;20528;-84
2024/01/17 02:45:28;;;;;;;0.10;0.10;;;0.00;99.90;;;;;;5101657;28;20043;-84
2024/01/17 02:47:53;;;;;;;0.10;0.10;;;-0.10;99.90;;;;;;5079920;28;20032;-85
2024/01/17 02:50:19;;;;;;;0.10;0.10;;;0.00;99.90;;;;;;5104332;28;20054;-85
2024/01/17 02:52:44;;;;;;;0.77;0.77;;;-0.10;99.90;;;;;;5107264;28;20036;-84
2024/01/17 02:55:11;;;;;;;2.27;2.13;;;0.00;99.90;;;;;;5107910;28;20043;-85
2024/01/17 02:57:38;;;;;;;7.57;1.05;;;0.00;99.90;;;;;;5067040;28;20105;-84
2024/01/17 03:00:04;;;;;;;0.30;0.30;;;0.00;99.90;;;;;;5084637;28;20052;-84
2024/01/17 03:02:30;;;;;;;3.10;2.57;;;0.00;99.90;;;;;;5090090;28;20124;-84
2024/01/17 03:04:55;;;;;;;21.73;3.83;;;0.00;99.90;;;;;;5089698;28;20048;-85
2024/01/17 03:07:21;;;;;;;0.10;0.10;;;-0.10;99.90;;;;;;5089964;28;20123;-84
2024/01/17 03:09:46;;;;;;;0.07;0.07;;;0.00;99.90;;;;;;5087932;28;20467;-84
2024/01/17 03:12:12;;;;;;;0.10;0.10;;;0.00;99.90;;;;;;5095190;28;20132;-84
2024/01/17 03:14:38;;;;;;;0.30;0.30;;;-0.10;99.90;;;;;;5095171;28;20067;-85
2024/01/17 03:17:03;;;;;;;1.03;1.03;;;0.00;99.90;;;;;;5093680;28;20437;-84
2024/01/17 03:19:29;;;;;;;0.17;0.17;;;0.00;99.90;;;;;;5058885;28;20501;-84
2024/01/17 03:21:55;;;;;;;0.27;0.17;;;0.00;99.90;;;;;;5077735;28;20062;-84
2024/01/17 03:24:21;;;;;;;0.50;0.50;;;0.00;99.90;;;;;;5096654;28;20043;-84
2024/01/17 03:26:46;;;;;;;0.43;0.43;;;0.00;99.90;;;;;;5069808;28;20040;-84
2024/01/17 03:29:12;;;;;;;0.08;0.08;;;0.00;99.90;;;;;;5095191;28;20043;-84
2024/01/17 03:31:37;;;;;;;0.00;0.00;;;0.00;99.90;;;;;;5090617;28;20119;-84
2024/01/17 03:34:03;;;;;;;0.20;0.20;;;-0.10;99.90;;;;;;5089204;28;20044;-84
2024/01/17 03:36:29;;;;;;;2.07;1.53;;;0.60;99.90;;;;;;5099649;28;20075;-84
2024/01/17 03:38:55;;;;;;;1.17;1.17;;;-0.20;99.90;;;;;;5070981;28;20048;-84
2024/01/17 03:41:21;;;;;;;0.10;0.10;;;-0.20;99.90;;;;;;5092859;28;20481;-84
2024/01/17 03:43:47;;;;;;;0.93;0.87;;;-0.20;99.90;;;;;;5094036;28;20122;-84
2024/01/17 03:46:12;;;;;;;0.77;0.77;;;-0.30;99.90;;;;;;5070185;28;20259;-84
2024/01/17 03:48:38;;;;;;;0.33;0.33;;;-0.20;99.90;;;;;;5096930;28;20501;-84
2024/01/17 03:51:05;;;;;;;0.10;0.10;;;-0.20;99.90;;;;;;5092559;28;20384;-84
2024/01/17 03:53:30;;;;;;;0.33;0.33;;;-0.20;99.90;;;;;;5091385;28;20523;-84
2024/01/17 03:55:56;;;;;;;0.00;0.00;;;-0.20;99.90;;;;;;5068311;28;20471;-84
2024/01/17 03:58:21;;;;;;;0.53;0.53;;;-0.30;99.90;;;;;;5096091;28;20035;-85
2024/01/17 04:00:47;;;;;;;0.33;0.33;;;-0.20;99.90;;;;;;5096098;28;20101;-84
2024/01/17 04:03:13;;;;;;;0.57;0.57;;;-0.30;99.90;;;;;;5093761;28;20047;-84
2024/01/17 04:05:40;;;;;;;0.20;0.20;;;-0.30;99.90;;;;;;5092818;28;20052;-84
2024/01/17 04:08:06;;;;;;;0.10;0.10;;;-0.30;99.90;;;;;;5066662;28;20818;-84
2024/01/17 04:10:32;;;;;;;0.67;0.67;;;-0.20;1.00;;;;;;5096245;28;20047;-84
2024/01/17 04:12:58;;;;;;;0.20;0.20;;;-0.30;1.00;;;;;;5088946;28;20405;-84
2024/01/17 04:15:24;;;;;;;0.10;0.10;;;-0.30;1.00;;;;;;5068678;28;20408;-84
2024/01/17 04:17:49;;;;;;;1.35;1.27;;;-0.30;99.90;;;;;;5095710;28;20047;-84
2024/01/17 04:20:15;;;;;;;0.13;0.13;;;-0.30;99.90;;;;;;5047319;28;20052;-84
2024/01/17 04:22:40;;;;;;;1.10;0.90;;;-0.30;1.00;;;;;;5087088;28;20101;-84
2024/01/17 04:25:07;;;;;;;0.13;0.13;;;-0.20;99.90;;;;;;5095097;28;20519;-84
2024/01/17 04:27:32;;;;;;;0.27;0.27;;;-0.30;99.90;;;;;;5095775;28;20127;-84
2024/01/17 04:29:58;;;;;;;0.30;0.30;;;-0.20;99.90;;;;;;5095469;28;20118;-84
2024/01/17 04:32:24;;;;;;;0.00;0.00;;;-0.30;99.90;;;;;;5097987;28;20584;-85
2024/01/17 04:34:50;;;;;;;0.30;0.30;;;-0.30;1.00;;;;;;5100992;28;20079;-84
2024/01/17 04:37:16;;;;;;;3.60;2.83;;;-0.30;99.90;;;;;;5092355;28;20444;-84
2024/01/17 04:39:42;;;;;;;0.00;0.00;;;-0.30;99.90;;;;;;5062407;28;20672;-85
2024/01/17 04:42:07;;;;;;;4.90;0.80;;;-0.30;99.90;;;;;;5086489;28;20046;-84
2024/01/17 04:44:33;;;;;;;0.33;0.33;;;-0.30;99.90;;;;;;5069104;28;20131;-84
2024/01/17 04:46:59;;;;;;;0.00;0.00;;;-0.30;99.90;;;;;;5095180;28;20489;-84
2024/01/17 04:49:26;;;;;;;0.30;0.30;;;-0.30;99.90;;;;;;5104122;28;20055;-84
2024/01/17 04:51:55;;;;;;;0.90;0.83;;;-0.30;99.90;;;;;;5084287;28;20572;-84
2024/01/17 04:54:23;;;;;;;0.13;0.13;;;-0.40;99.90;;;;;;5072058;28;20044;-84
2024/01/17 04:56:49;;;;;;;0.27;0.27;;;-0.40;99.90;;;;;;5092074;28;20040;-84
2024/01/17 04:59:14;;;;;;;0.40;0.40;;;-0.40;99.90;;;;;;5100512;28;20472;-84
2024/01/17 05:01:40;;;;;;;0.10;0.10;;;-0.50;1.00;;;;;;5078969;28;20067;-84
2024/01/17 05:04:07;;;;;;;0.13;0.13;;;-0.50;1.00;;;;;;5093065;28;20076;-84
2024/01/17 05:06:33;;;;;;;0.20;0.20;;;-0.50;1.00;;;;;;5090375;28;20052;-84
2024/01/17 05:09:00;;;;;;;1.60;1.50;;;-0.50;1.00;;;;;;5064729;28;20129;-84
2024/01/17 05:11:27;;;;;;;0.00;0.00;;;-0.60;1.00;;;;;;5095439;28;20054;-84
2024/01/17 05:13:53;;;;;;;0.00;0.00;;;-0.60;1.00;;;;;;5087065;28;20040;-84
2024/01/17 05:16:18;;;;;;;0.00;0.00;;;-0.60;1.00;;;;;;5065011;28;20100;-84
2024/01/17 05:18:44;;;;;;;2.17;2.00;;;-0.50;1.00;;;;;;5091678;28;20101;-84
2024/01/17 05:21:11;;;;;;;0.10;0.10;;;-0.60;1.00;;;;;;5091889;28;20051;-84
2024/01/17 05:23:38;;;;;;;0.60;0.60;;;-0.50;1.00;;;;;;5061911;28;20489;-84
2024/01/17 05:26:05;;;;;;;0.73;0.53;;;-0.50;1.00;;;;;;5094798;28;20052;-84
2024/01/17 05:28:30;;;;;;;1.47;1.40;;;-0.50;1.00;;;;;;5094888;28;20039;-84
2024/01/17 05:30:56;;;;;;;0.70;0.70;;;-0.50;1.00;;;;;;5071603;28;20044;-84
2024/01/17 05:33:22;;;;;;;0.22;0.22;;;-0.50;1.00;;;;;;5088305;28;20396;-84
2024/01/17 05:35:47;;;;;;;0.30;0.30;;;-0.60;1.00;;;;;;5061947;28;20058;-84
2024/01/17 05:38:13;;;;;;;0.10;0.10;;;-0.50;1.00;;;;;;5093925;28;20051;-84
2024/01/17 05:40:39;;;;;;;0.87;0.83;;;-0.50;1.00;;;;;;5067538;28;20698;-84
2024/01/17 05:43:04;;;;;;;1.10;1.10;;;-0.50;1.00;;;;;;5098043;28;20081;-84
2024/01/17 05:45:30;;;;;;;0.20;0.20;;;-0.50;1.00;;;;;;5081260;28;20112;-84
2024/01/17 05:47:56;;;;;;;0.27;0.27;;;-0.50;1.00;;;;;;5092198;28;20051;-84
2024/01/17 05:50:22;;;;;;;0.73;0.63;;;-0.50;1.00;;;;;;5064574;28;20040;-84
2024/01/17 05:52:50;;;;;;;0.17;0.17;;;-0.60;1.00;;;;;;5064590;28;20040;-84
2024/01/17 05:55:15;;;;;;;0.00;0.00;;;-0.60;1.00;;;;;;5067478;28;20040;-84
2024/01/17 05:57:41;;;;;;;0.30;0.30;;;-0.60;1.00;;;;;;5065109;28;20101;-84
2024/01/17 06:00:09;;;;;;;0.10;0.10;;;-0.60;1.00;;;;;;5093599;28;20062;-84
2024/01/17 06:02:39;;;;;;;0.20;0.20;;;-0.60;1.00;;;;;;5070254;28;20122;-84
2024/01/17 06:05:07;;;;;;;0.22;0.22;;;-0.80;1.00;;;;;;5095721;28;20047;-84
2024/01/17 06:07:33;;;;;;;0.20;0.20;;;-0.90;1.00;;;;;;5092154;28;20036;-84
2024/01/17 06:09:58;;;;;;;0.60;0.60;;;-1.00;1.00;;;;;;5091829;28;20635;-84
2024/01/17 06:12:24;;;;;;;0.30;0.30;;;-0.90;1.00;;;;;;5091653;28;20055;-84
2024/01/17 06:14:50;;;;;;;0.10;0.10;;;-1.00;1.00;;;;;;5103823;28;20058;-84
2024/01/17 06:17:15;;;;;;;0.60;0.40;;;-1.10;1.00;;;;;;5093091;28;20122;-84
2024/01/17 06:19:41;;;;;;;0.57;0.57;;;-1.10;1.00;;;;;;5091376;28;20460;-84
2024/01/17 06:22:08;;;;;;;0.00;0.00;;;-1.20;15.50;;;;;;5064085;28;20059;-84
2024/01/17 06:24:34;;;;;;;0.23;0.23;;;-1.20;1.00;;;;;;5094373;28;20123;-84
2024/01/17 06:27:00;;;;;;;0.22;0.22;;;-1.20;19.40;;;;;;5089884;28;20131;-84
2024/01/17 06:29:26;;;;;;;0.57;0.57;;;-1.20;16.70;;;;;;5065872;28;20044;-84
2024/01/17 06:31:55;;;;;;;0.10;0.10;;;-1.20;19.30;;;;;;5093168;28;20586;-84
2024/01/17 06:34:20;;;;;;;3.20;2.00;;;-1.20;54.50;;;;;;5091203;28;20516;-84
2024/01/17 06:36:46;;;;;;;0.08;0.08;;;-1.10;37.20;;;;;;5090232;28;20051;-84
2024/01/17 06:39:12;;;;;;;0.00;0.00;;;-1.20;20.30;;;;;;5063552;28;20051;-84
2024/01/17 06:41:38;;;;;;;0.30;0.30;;;-1.30;74.90;;;;;;5062197;28;20090;-84
2024/01/17 06:44:04;;;;;;;0.33;0.33;;;-1.40;99.90;;;;;;5057687;28;20492;-84
2024/01/17 06:46:29;;;;;;;4.33;1.70;;;-1.50;99.90;;;;;;5094443;28;20043;-84
2024/01/17 06:48:55;;;;;;;1.27;1.23;;;-1.50;99.90;;;;;;5072080;28;20484;-84
2024/01/17 06:51:20;;;;;;;0.00;0.00;;;-1.50;99.90;;;;;;5098758;28;20074;-84
2024/01/17 06:53:46;;;;;;;0.00;0.00;;;-1.60;99.90;;;;;;5069376;28;20581;-84
2024/01/17 06:56:13;;;;;;;0.00;0.00;;;-1.60;99.90;;;;;;5098512;28;20059;-84
2024/01/17 06:58:38;;;;;;;0.00;0.00;;;-1.60;99.90;;;;;;5098319;28;20501;-84
2024/01/17 07:01:04;;;;;;;0.23;0.23;;;-1.70;99.90;;;;;;5090517;28;20052;-84
2024/01/17 07:03:30;;;;;;;2.27;1.93;;;-1.30;99.90;;;;;;5098262;28;20130;-84
2024/01/17 07:05:55;;;;;;;0.80;0.67;;;-1.90;1.00;;;;;;5068711;28;20044;-84
2024/01/17 07:08:21;;;;;;;1.03;0.97;;;-1.90;1.00;;;;;;5070657;28;20554;-84
2024/01/17 07:10:46;;;;;;;0.20;0.20;;;-1.90;1.00;;;;;;5097806;28;20054;-84
2024/01/17 07:13:12;;;;;;;0.55;0.55;;;-1.90;1.00;;;;;;5093422;28;20071;-84
2024/01/17 07:15:38;;;;;;;0.10;0.10;;;-1.90;22.80;;;;;;5087811;28;20467;-84
2024/01/17 07:18:04;;;;;;;0.13;0.13;;;-2.00;64.20;;;;;;5068923;28;20501;-84
2024/01/17 07:20:29;;;;;;;0.10;0.10;;;-1.90;16.60;;;;;;5098962;28;20048;-84
2024/01/17 07:22:55;;;;;;;0.10;0.10;;;-1.90;1.00;;;;;;5097744;28;20412;-84
2024/01/17 07:25:21;;;;;;;0.20;0.20;;;-1.90;1.00;;;;;;5061158;28;20123;-84
2024/01/17 07:27:47;;;;;;;0.00;0.00;;;-1.90;25.90;;;;;;5059180;28;20102;-84
2024/01/17 07:30:14;;;;;;;0.30;0.30;;;-2.00;1.00;;;;;;5064776;28;20043;-84
2024/01/17 07:32:41;;;;;;;8.70;2.47;;;-2.00;1.00;;;;;;5083397;28;20048;-84
2024/01/17 07:35:07;;;;;;;0.77;0.50;;;-2.10;1.00;;;;;;5074706;28;20080;-84
2024/01/17 07:37:33;;;;;;;0.43;0.43;;;-2.10;58.50;;;;;;5069343;28;20136;-84
2024/01/17 07:39:59;;;;;;;4.37;1.70;;;-2.10;86.80;;;;;;5077684;28;20048;-84
2024/01/17 07:42:25;;;;;;;1.67;1.45;;;-2.00;1.00;;;;;;5092122;28;20040;-84
2024/01/17 07:44:51;;;;;;;0.63;0.63;;;-2.10;1.00;;;;;;5098261;28;20547;-84
2024/01/17 07:47:17;;;;;;;0.10;0.10;;;-2.00;1.00;;;;;;5100405;28;20358;-84
2024/01/17 07:49:44;;;;;;;1.95;1.45;;;-2.10;1.00;;;;;;5084845;28;20055;-84
2024/01/17 07:52:09;;;;;;;1.03;0.93;;;-2.10;1.00;;;;;;5093081;28;20048;-84
2024/01/17 07:54:36;;;;;;;0.17;0.17;;;-2.20;1.00;;;;;;5103851;28;20561;-83
2024/01/17 07:57:02;;;;;;;0.00;0.00;;;-2.20;1.90;;;;;;5099205;28;20044;-84
2024/01/17 07:59:28;;;;;;;1.30;1.00;;;-2.20;62.20;;;;;;5109691;28;20100;-84
2024/01/17 08:01:54;;;;;;;0.00;0.00;;;-2.20;1.00;;;;;;5073425;28;20044;-84
2024/01/17 08:04:20;;;;;;;0.00;0.00;;;-2.20;1.00;;;;;;5098692;28;20547;-84
2024/01/17 08:06:46;;;;;;;0.57;0.57;;;-2.30;1.00;;;;;;5097807;28;20082;-83
2024/01/17 08:09:20;;;;;;;3.40;1.63;;;-2.30;1.00;;;;;;5099586;28;20382;-83
2024/01/17 08:11:58;;;;;;;0.00;0.00;;;-2.30;99.90;;;;;;5070443;28;20051;-84
2024/01/17 08:14:24;;;;;;;0.20;0.20;;;-2.20;50.20;;;;;;5088826;28;20052;-84
2024/01/17 08:16:50;;;;;;;0.20;0.20;;;-2.10;1.00;;;;;;5097514;28;20040;-84
2024/01/17 08:19:16;;;;;;;0.20;0.20;;;-2.10;1.00;;;;;;5098305;28;20043;-84
2024/01/17 08:21:51;;;;;;;4.70;1.27;;;-2.10;1.00;;;;;;5090165;28;20051;-84
2024/01/17 08:24:16;;;;;;;0.10;0.10;;;-2.10;99.90;;;;;;5090703;28;20047;-84
2024/01/17 08:26:42;;;;;;;0.50;0.30;;;-2.10;99.90;;;;;;5088659;28;20044;-84
2024/01/17 08:29:09;;;;;;;0.00;0.00;;;-2.10;99.90;;;;;;5093773;28;20052;-84
2024/01/17 08:31:34;;;;;;;0.00;0.00;;;-2.10;99.90;;;;;;5093635;28;20040;-84
2024/01/17 08:34:00;;;;;;;0.00;0.00;;;-2.10;1.00;;;;;;5075008;28;20055;-84
2024/01/17 08:36:30;;;;;;;1.20;1.10;;;-2.10;99.90;;;;;;5059794;28;20548;-84
2024/01/17 08:38:56;;;;;;;0.53;0.53;;;-2.10;99.90;;;;;;5083743;28;20055;-84
2024/01/17 08:41:22;;;;;;;1.70;0.57;;;-2.10;1.00;;;;;;5063002;28;20218;-84
2024/01/17 08:43:48;;;;;;;0.40;0.40;;;-2.00;99.90;;;;;;5094789;28;20054;-83
2024/01/17 08:46:14;;;;;;;2.33;1.30;;;-2.00;99.90;;;;;;5069344;28;20134;-84
2024/01/17 08:48:40;;;;;;;0.20;0.20;;;-2.00;99.90;;;;;;5098481;28;20039;-83
2024/01/17 08:51:08;;;;;;;3.20;0.73;;;-1.90;99.90;;;;;;5069205;28;20044;-83
2024/01/17 08:53:34;;;;;;;0.15;0.15;;;-1.90;99.90;;;;;;5063683;28;20048;-83
2024/01/17 08:56:02;;;;;;;0.70;0.70;;;-1.90;99.90;;;;;;5049699;28;20043;-83
2024/01/17 08:58:27;;;;;;;0.00;0.00;;;-1.80;99.90;;;;;;5060189;28;20048;-83
2024/01/17 09:00:54;;;;;;;1.20;1.10;;;-1.80;99.90;;;;;;5082745;28;20430;-83
2024/01/17 09:03:20;;;;;;;2.93;0.93;;;-1.70;99.90;;;;;;5063346;28;20563;-84
2024/01/17 09:05:46;;;;;;;0.03;0.03;;;-1.70;99.90;;;;;;5068709;28;20055;-84
2024/01/17 09:08:13;;;;;;;1.00;0.83;;;-1.60;99.90;;;;;;5094231;28;20067;-83
2024/01/17 09:10:39;;;;;;;0.00;0.00;;;-1.60;99.90;;;;;;5053238;28;20048;-84
2024/01/17 09:13:04;;;;;;;0.10;0.10;;;-1.50;71.10;;;;;;5064791;28;20123;-83
2024/01/17 09:15:30;;;;;;;0.73;0.73;;;-1.40;43.30;;;;;;5066495;28;20051;-83
2024/01/17 09:17:55;;;;;;;0.30;0.30;;;-1.40;1.00;;;;;;5068554;28;20127;-84
2024/01/17 09:20:21;;;;;;;0.00;0.00;;;-1.40;7.90;;;;;;5097618;28;20074;-83
2024/01/17 09:22:46;;;;;;;1.13;1.03;;;-1.30;1.00;;;;;;5098763;28;20451;-83
2024/01/17 09:25:12;;;;;;;0.43;0.43;;;-1.30;1.00;;;;;;5090653;28;20051;-83
2024/01/17 09:27:38;;;;;;;0.20;0.20;;;-1.30;1.00;;;;;;5068556;28;20101;-84
2024/01/17 09:30:04;;;;;;;2.30;2.10;;;-1.30;1.00;;;;;;5073937;28;20051;-83
2024/01/17 09:32:30;;;;;;;0.10;0.10;;;-1.20;1.00;;;;;;5093951;28;20981;-84
2024/01/17 09:34:55;;;;;;;1.70;0.83;;;-1.20;1.00;;;;;;5068056;28;20052;-83
2024/01/17 09:37:21;;;;;;;1.30;0.73;;;-1.10;1.00;;;;;;5093402;28;20098;-84
2024/01/17 09:39:47;;;;;;;0.73;0.73;;;-0.70;1.00;;;;;;5094776;28;20043;-84
2024/01/17 09:42:16;;;;;;;1.60;1.20;;;-1.10;1.00;;;;;;5089312;28;20044;-84
2024/01/17 09:44:43;;;;;;;10.63;1.90;;;-1.00;1.00;;;;;;5061059;28;20148;-84
2024/01/17 09:47:13;;;;;;;0.03;0.03;;;-1.00;1.00;;;;;;5098756;28;20051;-83
2024/01/17 09:49:39;;;;;;;1.30;0.70;;;-0.90;1.00;;;;;;5098116;28;20032;-83
2024/01/17 09:52:06;;;;;;;2.42;1.73;;;-0.70;1.00;;;;;;5094098;28;20044;-83
2024/01/17 09:54:40;;;;;;;0.00;0.00;;;-0.70;99.90;;;;;;5088165;28;20052;-83
2024/01/17 09:57:09;;;;;;;0.38;0.38;;;-0.60;99.90;;;;;;5084624;28;20059;-83
2024/01/17 09:59:49;;;;;;;0.00;0.00;;;-0.50;99.90;;;;;;5089726;28;20505;-83
2024/01/17 10:02:16;;;;;;;3.08;2.25;;;-0.50;99.90;;;;;;5088744;28;20103;-84
2024/01/17 10:04:45;;;;;;;0.20;0.20;;;-0.50;99.90;;;;;;5098332;28;20047;-83
2024/01/17 10:07:12;;;;;;;1.77;1.10;;;-0.40;99.90;;;;;;5096161;28;20036;-83
2024/01/17 10:09:38;;;;;;;0.20;0.20;;;-0.30;99.90;;;;;;5091868;28;20230;-83
2024/01/17 10:12:04;;;;;;;0.33;0.33;;;-0.20;99.90;;;;;;5091195;28;20044;-83
2024/01/17 10:14:30;;;;;;;0.67;0.67;;;-0.10;99.90;;;;;;5094982;28;20040;-83
2024/01/17 10:16:55;;;;;;;0.00;0.00;;;0.00;99.90;;;;;;5068996;28;20048;-83
2024/01/17 10:19:24;;;;;;;0.10;0.10;;;0.10;99.90;;;;;;5096387;28;20405;-83
2024/01/17 10:21:50;;;;;;;0.13;0.13;;;0.20;99.90;;;;;;5090663;28;20072;-83
2024/01/17 10:24:15;;;;;;;0.00;0.00;;;0.30;99.90;;;;;;5100370;28;20083;-83
2024/01/17 10:26:42;;;;;;;0.93;0.93;;;0.40;99.90;;;;;;5090779;28;20049;-84
2024/01/17 10:29:10;;;;;;;0.20;0.20;;;0.50;99.90;;;;;;5071643;28;20040;-83
2024/01/17 10:31:39;;;;;;;0.07;0.07;;;0.60;99.90;;;;;;5083992;28;20044;-83
2024/01/17 10:34:05;;;;;;;0.57;0.45;;;0.60;99.90;;;;;;5089839;28;20508;-83
2024/01/17 10:36:30;;;;;;;1.40;0.77;;;0.60;99.90;;;;;;5096500;28;20040;-83
2024/01/17 10:39:06;;;;;;;0.73;0.73;;;0.60;99.90;;;;;;5073736;28;20105;-84
2024/01/17 10:41:32;;;;;;;0.25;0.25;;;0.60;99.90;;;;;;5093609;28;20051;-83
2024/01/17 10:44:02;;;;;;;0.00;0.00;;;0.70;99.90;;;;;;5095024;28;20414;-83
2024/01/17 10:46:27;;;;;;;0.77;0.43;;;0.70;99.90;;;;;;5094023;28;20079;-83
2024/01/17 10:48:54;;;;;;;0.53;0.53;;;0.70;99.90;;;;;;5096731;28;20078;-83
2024/01/17 10:51:21;;;;;;;0.27;0.27;;;0.80;99.90;;;;;;5074091;28;20040;-83
2024/01/17 10:53:51;;;;;;;0.10;0.10;;;0.80;99.90;;;;;;5084620;28;20045;-84
2024/01/17 10:56:20;;;;;;;1.70;1.50;;;0.80;99.90;;;;;;5098370;28;20622;-83
2024/01/17 10:58:51;;;;;;;0.83;0.83;;;0.90;99.90;;;;;;5107937;28;20126;-83
2024/01/17 11:01:38;;;;;;;0.10;0.10;;;0.90;99.90;;;;;;5086776;28;20054;-84
2024/01/17 11:04:18;;;;;;;0.98;0.90;;;0.90;99.90;;;;;;5068537;28;20346;-84
2024/01/17 11:06:44;;;;;;;0.00;0.00;;;0.90;99.90;;;;;;5063462;28;20047;-83
2024/01/17 11:09:12;;;;;;;1.70;0.83;;;1.00;99.90;;;;;;5088275;28;20094;-83
2024/01/17 11:11:39;;;;;;;0.10;0.10;;;1.00;99.90;;;;;;5092392;28;20043;-83
2024/01/17 11:14:08;;;;;;;0.70;0.70;;;1.00;99.90;;;;;;5101600;28;20039;-83
2024/01/17 11:16:35;;;;;;;0.40;0.40;;;1.00;99.90;;;;;;5096015;28;20047;-84
2024/01/17 11:19:02;;;;;;;0.20;0.20;;;1.00;99.90;;;;;;5094836;28;20121;-84
2024/01/17 11:21:32;;;;;;;0.53;0.53;;;0.90;99.90;;;;;;5067390;28;20048;-84
2024/01/17 11:24:09;;;;;;;0.32;0.32;;;0.90;99.90;;;;;;5070761;28;20044;-84
2024/01/17 11:26:50;;;;;;;0.05;0.05;;;0.90;99.90;;;;;;5064873;28;20122;-84
2024/01/17 11:29:28;;;;;;;1.37;1.27;;;0.90;99.90;;;;;;5070172;28;20056;-83
2024/01/17 11:32:19;;;;;;;1.30;1.20;;;1.00;99.90;;;;;;5089720;28;20448;-84
2024/01/17 11:34:48;;;;;;;1.23;1.13;;;1.00;99.90;;;;;;5096170;28;20040;-83
2024/01/17 11:37:28;;;;;;;1.27;0.67;;;1.00;99.90;;;;;;5068115;28;20048;-84
2024/01/17 11:39:57;;;;;;;0.17;0.17;;;1.10;99.90;;;;;;5071066;28;20601;-83
2024/01/17 11:42:24;;;;;;;0.43;0.43;;;1.00;99.90;;;;;;5087165;28;20032;-84
2024/01/17 11:44:52;;;;;;;0.10;0.10;;;1.10;99.90;;;;;;5087275;28;20108;-84
2024/01/17 11:47:21;;;;;;;0.70;0.68;;;1.10;99.90;;;;;;5082207;28;20040;-84
2024/01/17 11:49:47;;;;;;;0.23;0.23;;;1.10;99.90;;;;;;5111079;28;20044;-84
2024/01/17 11:52:34;;;;;;;0.10;0.10;;;1.20;99.90;;;;;;5085012;28;20039;-84
2024/01/17 11:55:00;;;;;;;1.50;0.90;;;1.20;99.90;;;;;;5108286;28;20048;-85
2024/01/17 11:57:28;;;;;;;0.65;0.60;;;1.20;99.90;;;;;;5094645;28;20524;-83
2024/01/17 12:00:11;;;;;;;0.10;0.10;;;1.20;99.90;;;;;;5096693;28;20040;-83
2024/01/17 12:02:38;;;;;;;0.30;0.30;;;1.20;99.90;;;;;;5091777;28;20048;-84
2024/01/17 12:05:06;;;;;;;1.80;1.65;;;1.20;99.90;;;;;;5104009;28;20055;-84
2024/01/17 12:07:39;;;;;;;0.15;0.13;;;1.10;99.90;;;;;;5089619;28;20036;-83
2024/01/17 12:10:09;;;;;;;0.13;0.13;;;1.10;99.90;;;;;;5067008;28;20062;-84
2024/01/17 12:12:42;;;;;;;1.90;0.73;;;1.00;99.90;;;;;;5111428;28;20028;-84
2024/01/17 12:15:09;;;;;;;0.10;0.10;;;0.90;99.90;;;;;;5108177;28;20130;-84
2024/01/17 12:17:37;;;;;;;4.43;1.00;;;0.90;99.90;;;;;;5098291;28;20518;-84
2024/01/17 12:20:07;;;;;;;0.50;0.50;;;0.90;99.90;;;;;;5095125;28;20135;-84
2024/01/17 12:22:32;;;;;;;0.23;0.23;;;0.80;99.90;;;;;;5070470;28;20421;-83
2024/01/17 12:24:59;;;;;;;0.00;0.00;;;0.70;99.90;;;;;;5094779;28;20047;-84
2024/01/17 12:27:26;;;;;;;0.10;0.10;;;0.70;99.90;;;;;;5074566;28;20051;-83
2024/01/17 12:29:54;;;;;;;0.73;0.67;;;0.60;99.90;;;;;;5078052;28;20087;-83
2024/01/17 12:32:23;;;;;;;0.00;0.00;;;0.60;99.90;;;;;;5099872;28;20082;-84
2024/01/17 12:34:49;;;;;;;0.25;0.25;;;0.60;99.90;;;;;;5065514;28;20441;-83
2024/01/17 12:37:16;;;;;;;0.40;0.40;;;0.70;99.90;;;;;;5069475;28;20482;-83
2024/01/17 12:39:41;;;;;;;0.20;0.20;;;0.60;99.90;;;;;;5066536;28;20052;-83
2024/01/17 12:42:07;;;;;;;0.00;0.00;;;0.50;99.90;;;;;;5100784;28;20047;-83
2024/01/17 12:44:33;;;;;;;1.15;0.98;;;0.50;99.90;;;;;;5098728;28;20043;-83
2024/01/17 12:47:00;;;;;;;0.15;0.15;;;0.60;99.90;;;;;;5069014;28;20069;-83
2024/01/17 12:49:27;;;;;;;0.00;0.00;;;0.60;1.00;;;;;;5091564;28;20047;-83
2024/01/17 12:51:54;;;;;;;0.20;0.20;;;0.50;99.90;;;;;;5094772;28;20092;-83